sensor_id;sensor_type;location;lat;lon;timestamp;P1;durP1;ratioP1;P2;durP2;ratioP2
53843;SDS011;39744;53.314;5.710;2023-02-28T00:00:33;6.07;;;1.65;;
53843;SDS011;39744;53.314;5.710;2023-02-28T00:02:59;7.65;;;1.80;;
53843;SDS011;39744;53.314;5.710;2023-02-28T00:05:25;6.88;;;1.60;;
53843;SDS011;39744;53.314;5.710;2023-02-28T00:07:52;9.98;;;2.45;;
53843;SDS011;39744;53.314;5.710;2023-02-28T00:10:21;6.97;;;2.70;;
53843;SDS011;39744;53.314;5.710;2023-02-28T00:12:50;7.97;;;2.70;;
53843;SDS011;39744;53.314;5.710;2023-02-28T00:15:16;11.65;;;2.15;;
53843;SDS011;39744;53.314;5.710;2023-02-28T00:17:42;12.75;;;2.20;;
53843;SDS011;39744;53.314;5.710;2023-02-28T00:20:08;10.35;;;2.63;;
53843;SDS011;39744;53.314;5.710;2023-02-28T00:22:35;7.18;;;1.83;;
53843;SDS011;39744;53.314;5.710;2023-02-28T00:25:03;11.43;;;2.10;;
53843;SDS011;39744;53.314;5.710;2023-02-28T00:27:29;9.77;;;1.80;;
53843;SDS011;39744;53.314;5.710;2023-02-28T00:29:55;13.25;;;2.42;;
53843;SDS011;39744;53.314;5.710;2023-02-28T00:32:21;14.68;;;2.15;;
53843;SDS011;39744;53.314;5.710;2023-02-28T00:34:46;15.15;;;3.45;;
53843;SDS011;39744;53.314;5.710;2023-02-28T00:37:12;15.13;;;1.98;;
53843;SDS011;39744;53.314;5.710;2023-02-28T00:39:38;9.05;;;1.80;;
53843;SDS011;39744;53.314;5.710;2023-02-28T00:42:04;9.68;;;2.20;;
53843;SDS011;39744;53.314;5.710;2023-02-28T00:44:31;11.65;;;1.92;;
53843;SDS011;39744;53.314;5.710;2023-02-28T00:46:57;9.25;;;1.83;;
53843;SDS011;39744;53.314;5.710;2023-02-28T00:49:23;9.52;;;1.67;;
53843;SDS011;39744;53.314;5.710;2023-02-28T00:51:50;9.20;;;1.88;;
53843;SDS011;39744;53.314;5.710;2023-02-28T00:54:16;9.75;;;2.15;;
53843;SDS011;39744;53.314;5.710;2023-02-28T00:56:41;12.80;;;1.98;;
53843;SDS011;39744;53.314;5.710;2023-02-28T00:59:07;8.88;;;1.55;;
53843;SDS011;39744;53.314;5.710;2023-02-28T01:01:33;7.18;;;1.70;;
53843;SDS011;39744;53.314;5.710;2023-02-28T01:03:58;7.18;;;1.60;;
53843;SDS011;39744;53.314;5.710;2023-02-28T01:06:24;10.55;;;1.63;;
53843;SDS011;39744;53.314;5.710;2023-02-28T01:08:50;9.75;;;1.58;;
53843;SDS011;39744;53.314;5.710;2023-02-28T01:11:16;9.48;;;1.60;;
53843;SDS011;39744;53.314;5.710;2023-02-28T01:13:43;6.72;;;1.33;;
53843;SDS011;39744;53.314;5.710;2023-02-28T01:16:10;8.13;;;1.48;;
53843;SDS011;39744;53.314;5.710;2023-02-28T01:18:36;6.82;;;1.50;;
53843;SDS011;39744;53.314;5.710;2023-02-28T01:21:06;5.55;;;1.20;;
53843;SDS011;39744;53.314;5.710;2023-02-28T01:23:33;8.75;;;2.03;;
53843;SDS011;39744;53.314;5.710;2023-02-28T01:26:08;4.88;;;1.88;;
53843;SDS011;39744;53.314;5.710;2023-02-28T01:28:54;5.75;;;1.90;;
53843;SDS011;39744;53.314;5.710;2023-02-28T01:31:20;7.07;;;1.90;;
53843;SDS011;39744;53.314;5.710;2023-02-28T01:33:47;11.50;;;2.53;;
53843;SDS011;39744;53.314;5.710;2023-02-28T01:36:14;7.57;;;2.03;;
53843;SDS011;39744;53.314;5.710;2023-02-28T01:38:42;9.55;;;2.47;;
53843;SDS011;39744;53.314;5.710;2023-02-28T01:41:09;12.35;;;2.30;;
53843;SDS011;39744;53.314;5.710;2023-02-28T01:46:14;5.75;;;1.60;;
53843;SDS011;39744;53.314;5.710;2023-02-28T01:48:41;7.32;;;2.00;;
53843;SDS011;39744;53.314;5.710;2023-02-28T01:51:13;6.30;;;1.50;;
53843;SDS011;39744;53.314;5.710;2023-02-28T01:53:51;6.95;;;1.20;;
53843;SDS011;39744;53.314;5.710;2023-02-28T01:56:22;11.07;;;1.27;;
53843;SDS011;39744;53.314;5.710;2023-02-28T01:58:53;13.77;;;1.70;;
53843;SDS011;39744;53.314;5.710;2023-02-28T02:01:20;9.75;;;1.73;;
53843;SDS011;39744;53.314;5.710;2023-02-28T02:03:54;7.32;;;1.13;;
53843;SDS011;39744;53.314;5.710;2023-02-28T02:06:59;7.75;;;1.13;;
53843;SDS011;39744;53.314;5.710;2023-02-28T02:09:17;9.55;;;1.45;;
53843;SDS011;39744;53.314;5.710;2023-02-28T02:11:43;13.90;;;1.67;;
53843;SDS011;39744;53.314;5.710;2023-02-28T02:16:52;5.55;;;1.23;;
53843;SDS011;39744;53.314;5.710;2023-02-28T02:19:46;5.90;;;1.60;;
53843;SDS011;39744;53.314;5.710;2023-02-28T02:25:37;8.68;;;1.88;;
53843;SDS011;39744;53.314;5.710;2023-02-28T02:31:37;6.82;;;2.33;;
53843;SDS011;39744;53.314;5.710;2023-02-28T02:39:50;5.90;;;1.48;;
53843;SDS011;39744;53.314;5.710;2023-02-28T02:43:24;5.80;;;1.50;;
53843;SDS011;39744;53.314;5.710;2023-02-28T02:45:33;7.88;;;1.50;;
53843;SDS011;39744;53.314;5.710;2023-02-28T02:48:15;6.53;;;1.27;;
53843;SDS011;39744;53.314;5.710;2023-02-28T02:50:45;6.32;;;1.27;;
53843;SDS011;39744;53.314;5.710;2023-02-28T02:53:14;6.25;;;1.00;;
53843;SDS011;39744;53.314;5.710;2023-02-28T02:55:44;6.65;;;1.30;;
53843;SDS011;39744;53.314;5.710;2023-02-28T02:58:18;6.55;;;1.30;;
53843;SDS011;39744;53.314;5.710;2023-02-28T03:00:46;8.25;;;1.42;;
53843;SDS011;39744;53.314;5.710;2023-02-28T03:03:15;7.70;;;1.70;;
53843;SDS011;39744;53.314;5.710;2023-02-28T03:05:47;11.57;;;1.70;;
53843;SDS011;39744;53.314;5.710;2023-02-28T03:08:14;5.90;;;1.00;;
53843;SDS011;39744;53.314;5.710;2023-02-28T03:10:41;6.85;;;1.30;;
53843;SDS011;39744;53.314;5.710;2023-02-28T03:21:13;7.78;;;1.10;;
53843;SDS011;39744;53.314;5.710;2023-02-28T03:23:56;6.72;;;1.40;;
53843;SDS011;39744;53.314;5.710;2023-02-28T03:26:29;13.98;;;1.52;;
53843;SDS011;39744;53.314;5.710;2023-02-28T03:29:02;9.98;;;1.50;;
53843;SDS011;39744;53.314;5.710;2023-02-28T03:31:38;13.30;;;1.50;;
53843;SDS011;39744;53.314;5.710;2023-02-28T03:37:08;8.23;;;1.50;;
53843;SDS011;39744;53.314;5.710;2023-02-28T03:42:08;3.92;;;1.20;;
53843;SDS011;39744;53.314;5.710;2023-02-28T03:44:46;7.57;;;1.10;;
53843;SDS011;39744;53.314;5.710;2023-02-28T03:47:16;7.63;;;1.40;;
53843;SDS011;39744;53.314;5.710;2023-02-28T03:49:47;6.63;;;1.33;;
53843;SDS011;39744;53.314;5.710;2023-02-28T03:52:17;7.78;;;1.45;;
53843;SDS011;39744;53.314;5.710;2023-02-28T03:54:45;7.15;;;1.10;;
53843;SDS011;39744;53.314;5.710;2023-02-28T03:57:27;5.53;;;1.20;;
53843;SDS011;39744;53.314;5.710;2023-02-28T04:00:06;11.73;;;1.55;;
53843;SDS011;39744;53.314;5.710;2023-02-28T04:02:42;9.43;;;1.42;;
53843;SDS011;39744;53.314;5.710;2023-02-28T04:05:08;9.20;;;1.55;;
53843;SDS011;39744;53.314;5.710;2023-02-28T04:07:34;9.20;;;1.50;;
53843;SDS011;39744;53.314;5.710;2023-02-28T04:10:00;9.48;;;1.88;;
53843;SDS011;39744;53.314;5.710;2023-02-28T04:12:25;10.15;;;1.60;;
53843;SDS011;39744;53.314;5.710;2023-02-28T04:14:51;7.40;;;1.52;;
53843;SDS011;39744;53.314;5.710;2023-02-28T04:17:17;7.85;;;1.38;;
53843;SDS011;39744;53.314;5.710;2023-02-28T04:19:43;9.18;;;1.40;;
53843;SDS011;39744;53.314;5.710;2023-02-28T04:22:09;8.65;;;1.90;;
53843;SDS011;39744;53.314;5.710;2023-02-28T04:24:35;9.45;;;1.45;;
53843;SDS011;39744;53.314;5.710;2023-02-28T04:27:01;8.15;;;1.10;;
53843;SDS011;39744;53.314;5.710;2023-02-28T04:29:28;4.95;;;1.50;;
53843;SDS011;39744;53.314;5.710;2023-02-28T04:31:55;7.03;;;1.30;;
53843;SDS011;39744;53.314;5.710;2023-02-28T04:34:28;7.50;;;1.42;;
53843;SDS011;39744;53.314;5.710;2023-02-28T04:36:55;4.35;;;1.15;;
53843;SDS011;39744;53.314;5.710;2023-02-28T04:39:22;7.60;;;1.23;;
53843;SDS011;39744;53.314;5.710;2023-02-28T04:41:49;6.75;;;1.20;;
53843;SDS011;39744;53.314;5.710;2023-02-28T04:44:15;7.97;;;1.15;;
53843;SDS011;39744;53.314;5.710;2023-02-28T04:46:42;11.43;;;1.83;;
53843;SDS011;39744;53.314;5.710;2023-02-28T04:49:08;8.75;;;1.77;;
53843;SDS011;39744;53.314;5.710;2023-02-28T04:51:36;7.30;;;1.15;;
53843;SDS011;39744;53.314;5.710;2023-02-28T04:54:02;3.92;;;1.05;;
53843;SDS011;39744;53.314;5.710;2023-02-28T04:56:28;6.65;;;1.13;;
53843;SDS011;39744;53.314;5.710;2023-02-28T04:58:53;6.43;;;1.17;;
53843;SDS011;39744;53.314;5.710;2023-02-28T05:01:29;6.93;;;1.13;;
53843;SDS011;39744;53.314;5.710;2023-02-28T05:03:57;9.50;;;1.52;;
53843;SDS011;39744;53.314;5.710;2023-02-28T05:06:24;8.43;;;1.77;;
53843;SDS011;39744;53.314;5.710;2023-02-28T05:08:52;8.27;;;1.60;;
53843;SDS011;39744;53.314;5.710;2023-02-28T05:11:22;5.95;;;1.13;;
53843;SDS011;39744;53.314;5.710;2023-02-28T05:13:50;4.30;;;1.20;;
53843;SDS011;39744;53.314;5.710;2023-02-28T05:16:17;8.25;;;1.45;;
53843;SDS011;39744;53.314;5.710;2023-02-28T05:18:43;11.13;;;1.50;;
53843;SDS011;39744;53.314;5.710;2023-02-28T05:21:20;4.88;;;1.25;;
53843;SDS011;39744;53.314;5.710;2023-02-28T05:23:49;8.85;;;1.50;;
53843;SDS011;39744;53.314;5.710;2023-02-28T05:26:15;8.55;;;1.48;;
53843;SDS011;39744;53.314;5.710;2023-02-28T05:28:41;7.55;;;1.58;;
53843;SDS011;39744;53.314;5.710;2023-02-28T05:31:07;11.25;;;1.48;;
53843;SDS011;39744;53.314;5.710;2023-02-28T05:33:35;10.82;;;1.30;;
53843;SDS011;39744;53.314;5.710;2023-02-28T05:36:01;5.95;;;1.60;;
53843;SDS011;39744;53.314;5.710;2023-02-28T05:38:27;13.43;;;1.70;;
53843;SDS011;39744;53.314;5.710;2023-02-28T05:40:52;7.88;;;1.80;;
53843;SDS011;39744;53.314;5.710;2023-02-28T05:43:18;11.07;;;2.00;;
53843;SDS011;39744;53.314;5.710;2023-02-28T05:45:44;8.90;;;1.60;;
53843;SDS011;39744;53.314;5.710;2023-02-28T05:48:09;7.93;;;1.60;;
53843;SDS011;39744;53.314;5.710;2023-02-28T05:50:35;12.68;;;1.52;;
53843;SDS011;39744;53.314;5.710;2023-02-28T05:53:01;12.10;;;1.65;;
53843;SDS011;39744;53.314;5.710;2023-02-28T05:55:27;8.93;;;1.35;;
53843;SDS011;39744;53.314;5.710;2023-02-28T05:57:52;7.57;;;1.98;;
53843;SDS011;39744;53.314;5.710;2023-02-28T06:00:18;12.98;;;1.48;;
53843;SDS011;39744;53.314;5.710;2023-02-28T06:02:44;13.68;;;2.08;;
53843;SDS011;39744;53.314;5.710;2023-02-28T06:05:13;9.73;;;1.95;;
53843;SDS011;39744;53.314;5.710;2023-02-28T06:07:40;14.48;;;1.77;;
53843;SDS011;39744;53.314;5.710;2023-02-28T06:10:06;7.63;;;1.58;;
53843;SDS011;39744;53.314;5.710;2023-02-28T06:12:33;13.50;;;1.80;;
53843;SDS011;39744;53.314;5.710;2023-02-28T06:14:58;13.20;;;1.98;;
53843;SDS011;39744;53.314;5.710;2023-02-28T06:17:24;16.23;;;3.30;;
53843;SDS011;39744;53.314;5.710;2023-02-28T06:19:49;8.52;;;1.73;;
53843;SDS011;39744;53.314;5.710;2023-02-28T06:22:15;10.52;;;2.00;;
53843;SDS011;39744;53.314;5.710;2023-02-28T06:24:41;7.28;;;1.50;;
53843;SDS011;39744;53.314;5.710;2023-02-28T06:27:06;15.75;;;2.45;;
53843;SDS011;39744;53.314;5.710;2023-02-28T06:29:33;9.52;;;1.80;;
53843;SDS011;39744;53.314;5.710;2023-02-28T06:31:59;12.15;;;1.77;;
53843;SDS011;39744;53.314;5.710;2023-02-28T06:34:25;6.45;;;1.25;;
53843;SDS011;39744;53.314;5.710;2023-02-28T06:36:51;7.95;;;1.70;;
53843;SDS011;39744;53.314;5.710;2023-02-28T06:39:17;15.02;;;2.80;;
53843;SDS011;39744;53.314;5.710;2023-02-28T06:41:43;11.23;;;1.70;;
53843;SDS011;39744;53.314;5.710;2023-02-28T06:44:15;7.18;;;1.65;;
53843;SDS011;39744;53.314;5.710;2023-02-28T06:46:42;8.48;;;1.50;;
53843;SDS011;39744;53.314;5.710;2023-02-28T06:49:08;13.35;;;1.90;;
53843;SDS011;39744;53.314;5.710;2023-02-28T06:51:35;13.88;;;1.80;;
53843;SDS011;39744;53.314;5.710;2023-02-28T06:54:03;10.13;;;1.60;;
53843;SDS011;39744;53.314;5.710;2023-02-28T06:56:29;13.32;;;1.88;;
53843;SDS011;39744;53.314;5.710;2023-02-28T06:58:54;14.20;;;2.53;;
53843;SDS011;39744;53.314;5.710;2023-02-28T07:01:21;7.97;;;1.60;;
53843;SDS011;39744;53.314;5.710;2023-02-28T07:03:49;10.75;;;2.20;;
53843;SDS011;39744;53.314;5.710;2023-02-28T07:06:17;11.27;;;1.80;;
53843;SDS011;39744;53.314;5.710;2023-02-28T07:08:44;17.85;;;2.50;;
53843;SDS011;39744;53.314;5.710;2023-02-28T07:11:10;15.32;;;3.63;;
53843;SDS011;39744;53.314;5.710;2023-02-28T07:13:36;13.52;;;3.88;;
53843;SDS011;39744;53.314;5.710;2023-02-28T07:16:05;9.63;;;4.60;;
53843;SDS011;39744;53.314;5.710;2023-02-28T07:18:33;9.47;;;4.80;;
53843;SDS011;39744;53.314;5.710;2023-02-28T07:21:01;9.57;;;5.07;;
53843;SDS011;39744;53.314;5.710;2023-02-28T07:23:27;9.88;;;4.38;;
53843;SDS011;39744;53.314;5.710;2023-02-28T07:25:56;13.13;;;5.82;;
53843;SDS011;39744;53.314;5.710;2023-02-28T07:28:22;13.30;;;6.13;;
53843;SDS011;39744;53.314;5.710;2023-02-28T07:30:47;10.35;;;6.13;;
53843;SDS011;39744;53.314;5.710;2023-02-28T07:33:13;9.40;;;6.00;;
53843;SDS011;39744;53.314;5.710;2023-02-28T07:35:39;8.25;;;5.05;;
53843;SDS011;39744;53.314;5.710;2023-02-28T07:38:04;10.27;;;5.22;;
53843;SDS011;39744;53.314;5.710;2023-02-28T07:40:32;8.05;;;5.25;;
53843;SDS011;39744;53.314;5.710;2023-02-28T07:42:59;9.25;;;5.20;;
53843;SDS011;39744;53.314;5.710;2023-02-28T07:45:26;9.82;;;5.53;;
53843;SDS011;39744;53.314;5.710;2023-02-28T07:47:53;8.75;;;5.70;;
53843;SDS011;39744;53.314;5.710;2023-02-28T07:50:19;11.55;;;5.60;;
53843;SDS011;39744;53.314;5.710;2023-02-28T07:52:46;9.32;;;5.80;;
53843;SDS011;39744;53.314;5.710;2023-02-28T07:55:11;8.90;;;5.75;;
53843;SDS011;39744;53.314;5.710;2023-02-28T07:57:38;9.57;;;5.85;;
53843;SDS011;39744;53.314;5.710;2023-02-28T08:00:05;11.75;;;7.15;;
53843;SDS011;39744;53.314;5.710;2023-02-28T08:02:34;9.85;;;6.18;;
53843;SDS011;39744;53.314;5.710;2023-02-28T08:05:00;11.45;;;7.30;;
53843;SDS011;39744;53.314;5.710;2023-02-28T08:07:26;10.57;;;7.00;;
53843;SDS011;39744;53.314;5.710;2023-02-28T08:09:51;12.43;;;7.00;;
53843;SDS011;39744;53.314;5.710;2023-02-28T08:12:18;13.57;;;7.80;;
53843;SDS011;39744;53.314;5.710;2023-02-28T08:14:44;14.13;;;7.30;;
53843;SDS011;39744;53.314;5.710;2023-02-28T08:17:10;12.32;;;7.50;;
53843;SDS011;39744;53.314;5.710;2023-02-28T08:19:36;13.48;;;7.75;;
53843;SDS011;39744;53.314;5.710;2023-02-28T08:22:02;12.73;;;8.00;;
53843;SDS011;39744;53.314;5.710;2023-02-28T08:24:28;11.70;;;7.72;;
53843;SDS011;39744;53.314;5.710;2023-02-28T08:26:54;13.75;;;8.23;;
53843;SDS011;39744;53.314;5.710;2023-02-28T08:29:20;12.73;;;7.95;;
53843;SDS011;39744;53.314;5.710;2023-02-28T08:31:45;12.20;;;7.53;;
53843;SDS011;39744;53.314;5.710;2023-02-28T08:34:12;11.55;;;7.47;;
53843;SDS011;39744;53.314;5.710;2023-02-28T08:36:39;12.52;;;7.50;;
53843;SDS011;39744;53.314;5.710;2023-02-28T08:39:06;13.85;;;7.88;;
53843;SDS011;39744;53.314;5.710;2023-02-28T08:41:32;12.95;;;6.90;;
53843;SDS011;39744;53.314;5.710;2023-02-28T08:43:58;12.82;;;7.80;;
53843;SDS011;39744;53.314;5.710;2023-02-28T08:46:25;10.43;;;7.30;;
53843;SDS011;39744;53.314;5.710;2023-02-28T08:48:51;11.68;;;7.50;;
53843;SDS011;39744;53.314;5.710;2023-02-28T08:53:53;11.18;;;7.20;;
53843;SDS011;39744;53.314;5.710;2023-02-28T08:56:20;10.15;;;7.03;;
53843;SDS011;39744;53.314;5.710;2023-02-28T08:58:47;12.82;;;7.55;;
53843;SDS011;39744;53.314;5.710;2023-02-28T09:01:15;11.20;;;7.38;;
53843;SDS011;39744;53.314;5.710;2023-02-28T09:03:42;15.05;;;8.57;;
53843;SDS011;39744;53.314;5.710;2023-02-28T09:06:10;14.00;;;8.65;;
53843;SDS011;39744;53.314;5.710;2023-02-28T09:08:37;11.75;;;8.20;;
53843;SDS011;39744;53.314;5.710;2023-02-28T09:11:03;12.15;;;8.00;;
53843;SDS011;39744;53.314;5.710;2023-02-28T09:13:29;14.77;;;8.57;;
53843;SDS011;39744;53.314;5.710;2023-02-28T09:16:02;16.15;;;9.35;;
53843;SDS011;39744;53.314;5.710;2023-02-28T09:18:29;15.32;;;9.30;;
53843;SDS011;39744;53.314;5.710;2023-02-28T09:20:55;16.38;;;9.35;;
53843;SDS011;39744;53.314;5.710;2023-02-28T09:23:21;12.30;;;8.15;;
53843;SDS011;39744;53.314;5.710;2023-02-28T09:28:13;14.40;;;8.50;;
53843;SDS011;39744;53.314;5.710;2023-02-28T09:30:41;10.80;;;7.18;;
53843;SDS011;39744;53.314;5.710;2023-02-28T09:33:06;15.60;;;9.02;;
53843;SDS011;39744;53.314;5.710;2023-02-28T09:35:32;13.00;;;8.55;;
53843;SDS011;39744;53.314;5.710;2023-02-28T09:37:58;12.95;;;7.82;;
53843;SDS011;39744;53.314;5.710;2023-02-28T09:40:24;12.18;;;7.57;;
53843;SDS011;39744;53.314;5.710;2023-02-28T09:42:51;13.45;;;8.10;;
53843;SDS011;39744;53.314;5.710;2023-02-28T09:45:39;13.35;;;8.13;;
53843;SDS011;39744;53.314;5.710;2023-02-28T09:48:12;12.63;;;8.23;;
53843;SDS011;39744;53.314;5.710;2023-02-28T09:50:52;12.02;;;8.07;;
53843;SDS011;39744;53.314;5.710;2023-02-28T09:53:34;12.25;;;7.57;;
53843;SDS011;39744;53.314;5.710;2023-02-28T09:56:05;10.75;;;7.50;;
53843;SDS011;39744;53.314;5.710;2023-02-28T09:58:37;8.98;;;5.93;;
53843;SDS011;39744;53.314;5.710;2023-02-28T10:03:55;11.07;;;6.75;;
53843;SDS011;39744;53.314;5.710;2023-02-28T10:06:36;12.82;;;7.15;;
53843;SDS011;39744;53.314;5.710;2023-02-28T10:09:17;11.25;;;7.40;;
53843;SDS011;39744;53.314;5.710;2023-02-28T10:11:47;9.68;;;6.55;;
53843;SDS011;39744;53.314;5.710;2023-02-28T10:14:21;8.68;;;5.97;;
53843;SDS011;39744;53.314;5.710;2023-02-28T10:16:53;11.90;;;6.53;;
53843;SDS011;39744;53.314;5.710;2023-02-28T10:24:35;10.40;;;6.90;;
53843;SDS011;39744;53.314;5.710;2023-02-28T10:27:13;10.93;;;5.72;;
53843;SDS011;39744;53.314;5.710;2023-02-28T10:29:42;9.23;;;5.00;;
53843;SDS011;39744;53.314;5.710;2023-02-28T10:32:10;10.07;;;5.72;;
53843;SDS011;39744;53.314;5.710;2023-02-28T10:34:40;9.23;;;5.72;;
53843;SDS011;39744;53.314;5.710;2023-02-28T10:37:06;7.88;;;4.93;;
53843;SDS011;39744;53.314;5.710;2023-02-28T10:39:43;7.75;;;4.93;;
53843;SDS011;39744;53.314;5.710;2023-02-28T10:42:27;9.60;;;5.43;;
53843;SDS011;39744;53.314;5.710;2023-02-28T10:47:53;8.02;;;5.22;;
53843;SDS011;39744;53.314;5.710;2023-02-28T10:55:42;8.88;;;5.30;;
53843;SDS011;39744;53.314;5.710;2023-02-28T10:58:24;12.18;;;5.63;;
53843;SDS011;39744;53.314;5.710;2023-02-28T11:00:52;8.10;;;5.35;;
53843;SDS011;39744;53.314;5.710;2023-02-28T11:03:32;8.70;;;5.53;;
53843;SDS011;39744;53.314;5.710;2023-02-28T11:06:04;9.65;;;5.45;;
53843;SDS011;39744;53.314;5.710;2023-02-28T11:08:32;10.30;;;5.13;;
53843;SDS011;39744;53.314;5.710;2023-02-28T11:10:58;10.35;;;6.05;;
53843;SDS011;39744;53.314;5.710;2023-02-28T11:13:32;9.77;;;5.57;;
53843;SDS011;39744;53.314;5.710;2023-02-28T11:16:00;7.82;;;4.95;;
53843;SDS011;39744;53.314;5.710;2023-02-28T11:18:29;8.52;;;5.28;;
53843;SDS011;39744;53.314;5.710;2023-02-28T11:20:59;11.27;;;5.78;;
53843;SDS011;39744;53.314;5.710;2023-02-28T11:23:27;8.02;;;5.18;;
53843;SDS011;39744;53.314;5.710;2023-02-28T11:25:56;8.25;;;5.43;;
53843;SDS011;39744;53.314;5.710;2023-02-28T11:33:41;8.38;;;4.57;;
53843;SDS011;39744;53.314;5.710;2023-02-28T11:38:41;8.43;;;4.70;;
53843;SDS011;39744;53.314;5.710;2023-02-28T11:49:24;10.20;;;5.53;;
53843;SDS011;39744;53.314;5.710;2023-02-28T11:55:20;8.50;;;5.13;;
53843;SDS011;39744;53.314;5.710;2023-02-28T11:58:14;8.80;;;5.32;;
53843;SDS011;39744;53.314;5.710;2023-02-28T12:06:18;8.70;;;5.28;;
53843;SDS011;39744;53.314;5.710;2023-02-28T12:09:02;9.07;;;5.30;;
53843;SDS011;39744;53.314;5.710;2023-02-28T12:17:33;10.25;;;5.18;;
53843;SDS011;39744;53.314;5.710;2023-02-28T12:28:02;8.55;;;5.15;;
53843;SDS011;39744;53.314;5.710;2023-02-28T12:30:28;6.93;;;4.30;;
53843;SDS011;39744;53.314;5.710;2023-02-28T12:33:07;9.93;;;4.20;;
53843;SDS011;39744;53.314;5.710;2023-02-28T12:35:39;8.80;;;4.35;;
53843;SDS011;39744;53.314;5.710;2023-02-28T12:38:18;7.47;;;4.32;;
53843;SDS011;39744;53.314;5.710;2023-02-28T12:40:58;7.28;;;4.50;;
53843;SDS011;39744;53.314;5.710;2023-02-28T12:43:28;6.38;;;3.67;;
53843;SDS011;39744;53.314;5.710;2023-02-28T12:46:07;8.93;;;4.20;;
53843;SDS011;39744;53.314;5.710;2023-02-28T12:48:39;8.48;;;3.60;;
53843;SDS011;39744;53.314;5.710;2023-02-28T12:51:15;6.38;;;3.20;;
53843;SDS011;39744;53.314;5.710;2023-02-28T12:58:45;6.05;;;3.15;;
53843;SDS011;39744;53.314;5.710;2023-02-28T13:06:57;5.22;;;3.30;;
53843;SDS011;39744;53.314;5.710;2023-02-28T13:09:31;8.52;;;4.20;;
53843;SDS011;39744;53.314;5.710;2023-02-28T13:11:57;6.35;;;3.80;;
53843;SDS011;39744;53.314;5.710;2023-02-28T13:19:34;6.72;;;4.53;;
53843;SDS011;39744;53.314;5.710;2023-02-28T13:22:03;8.25;;;4.80;;
53843;SDS011;39744;53.314;5.710;2023-02-28T13:24:49;7.75;;;4.78;;
53843;SDS011;39744;53.314;5.710;2023-02-28T13:27:23;8.63;;;5.13;;
53843;SDS011;39744;53.314;5.710;2023-02-28T13:29:58;8.15;;;4.57;;
53843;SDS011;39744;53.314;5.710;2023-02-28T13:39:49;9.63;;;5.20;;
53843;SDS011;39744;53.314;5.710;2023-02-28T13:48:15;8.98;;;5.90;;
53843;SDS011;39744;53.314;5.710;2023-02-28T13:50:20;10.63;;;6.13;;
53843;SDS011;39744;53.314;5.710;2023-02-28T13:55:48;11.40;;;5.90;;
53843;SDS011;39744;53.314;5.710;2023-02-28T13:58:46;9.95;;;6.65;;
53843;SDS011;39744;53.314;5.710;2023-02-28T14:01:31;9.60;;;6.00;;
53843;SDS011;39744;53.314;5.710;2023-02-28T14:06:59;10.25;;;5.90;;
53843;SDS011;39744;53.314;5.710;2023-02-28T14:09:30;9.05;;;5.65;;
53843;SDS011;39744;53.314;5.710;2023-02-28T14:17:59;11.00;;;5.95;;
53843;SDS011;39744;53.314;5.710;2023-02-28T14:20:27;10.73;;;6.07;;
53843;SDS011;39744;53.314;5.710;2023-02-28T14:25:51;9.32;;;6.05;;
53843;SDS011;39744;53.314;5.710;2023-02-28T14:31:13;8.90;;;5.82;;
53843;SDS011;39744;53.314;5.710;2023-02-28T14:36:32;10.57;;;6.45;;
53843;SDS011;39744;53.314;5.710;2023-02-28T14:39:03;10.77;;;6.40;;
53843;SDS011;39744;53.314;5.710;2023-02-28T14:41:33;11.90;;;6.20;;
53843;SDS011;39744;53.314;5.710;2023-02-28T14:46:39;11.13;;;6.45;;
53843;SDS011;39744;53.314;5.710;2023-02-28T14:49:06;10.77;;;6.25;;
53843;SDS011;39744;53.314;5.710;2023-02-28T14:51:42;10.15;;;6.22;;
53843;SDS011;39744;53.314;5.710;2023-02-28T14:54:12;9.40;;;6.15;;
53843;SDS011;39744;53.314;5.710;2023-02-28T14:56:40;9.30;;;5.88;;
53843;SDS011;39744;53.314;5.710;2023-02-28T14:59:20;11.63;;;6.43;;
53843;SDS011;39744;53.314;5.710;2023-02-28T15:04:41;11.93;;;6.07;;
53843;SDS011;39744;53.314;5.710;2023-02-28T15:07:11;10.45;;;5.80;;
53843;SDS011;39744;53.314;5.710;2023-02-28T15:09:39;11.77;;;6.33;;
53843;SDS011;39744;53.314;5.710;2023-02-28T15:12:05;12.05;;;6.13;;
53843;SDS011;39744;53.314;5.710;2023-02-28T15:14:31;9.75;;;6.25;;
53843;SDS011;39744;53.314;5.710;2023-02-28T15:16:58;11.57;;;5.70;;
53843;SDS011;39744;53.314;5.710;2023-02-28T15:19:28;8.70;;;5.18;;
53843;SDS011;39744;53.314;5.710;2023-02-28T15:21:59;10.23;;;5.85;;
53843;SDS011;39744;53.314;5.710;2023-02-28T15:24:39;10.53;;;5.87;;
53843;SDS011;39744;53.314;5.710;2023-02-28T15:27:51;9.70;;;5.50;;
53843;SDS011;39744;53.314;5.710;2023-02-28T15:29:59;11.95;;;6.40;;
53843;SDS011;39744;53.314;5.710;2023-02-28T15:32:34;10.90;;;6.32;;
53843;SDS011;39744;53.314;5.710;2023-02-28T15:37:56;11.10;;;6.20;;
53843;SDS011;39744;53.314;5.710;2023-02-28T15:40:27;9.20;;;5.82;;
53843;SDS011;39744;53.314;5.710;2023-02-28T15:45:51;9.10;;;5.55;;
53843;SDS011;39744;53.314;5.710;2023-02-28T15:50:52;9.73;;;5.53;;
53843;SDS011;39744;53.314;5.710;2023-02-28T15:53:24;8.90;;;5.45;;
53843;SDS011;39744;53.314;5.710;2023-02-28T15:55:57;12.45;;;6.05;;
53843;SDS011;39744;53.314;5.710;2023-02-28T15:58:26;9.93;;;5.88;;
53843;SDS011;39744;53.314;5.710;2023-02-28T16:01:06;9.55;;;5.78;;
53843;SDS011;39744;53.314;5.710;2023-02-28T16:03:47;10.70;;;5.97;;
53843;SDS011;39744;53.314;5.710;2023-02-28T16:09:02;9.90;;;5.95;;
53843;SDS011;39744;53.314;5.710;2023-02-28T16:11:29;9.88;;;5.75;;
53843;SDS011;39744;53.314;5.710;2023-02-28T16:13:55;10.45;;;6.00;;
53843;SDS011;39744;53.314;5.710;2023-02-28T16:16:23;9.80;;;6.25;;
53843;SDS011;39744;53.314;5.710;2023-02-28T16:18:50;11.63;;;6.18;;
53843;SDS011;39744;53.314;5.710;2023-02-28T16:21:16;12.90;;;6.10;;
53843;SDS011;39744;53.314;5.710;2023-02-28T16:23:41;10.70;;;6.90;;
53843;SDS011;39744;53.314;5.710;2023-02-28T16:26:07;14.70;;;6.90;;
53843;SDS011;39744;53.314;5.710;2023-02-28T16:28:35;14.52;;;6.97;;
53843;SDS011;39744;53.314;5.710;2023-02-28T16:31:03;15.70;;;7.47;;
53843;SDS011;39744;53.314;5.710;2023-02-28T16:33:31;11.68;;;6.88;;
53843;SDS011;39744;53.314;5.710;2023-02-28T16:35:58;13.48;;;7.47;;
53843;SDS011;39744;53.314;5.710;2023-02-28T16:38:24;15.73;;;7.22;;
53843;SDS011;39744;53.314;5.710;2023-02-28T16:40:50;10.20;;;6.97;;
53843;SDS011;39744;53.314;5.710;2023-02-28T16:43:18;13.00;;;7.78;;
53843;SDS011;39744;53.314;5.710;2023-02-28T16:45:47;14.82;;;7.25;;
53843;SDS011;39744;53.314;5.710;2023-02-28T16:48:16;13.35;;;7.15;;
53843;SDS011;39744;53.314;5.710;2023-02-28T16:50:42;13.05;;;7.10;;
53843;SDS011;39744;53.314;5.710;2023-02-28T16:53:09;12.50;;;7.82;;
53843;SDS011;39744;53.314;5.710;2023-02-28T16:55:35;11.02;;;6.90;;
53843;SDS011;39744;53.314;5.710;2023-02-28T16:58:01;12.25;;;6.95;;
53843;SDS011;39744;53.314;5.710;2023-02-28T17:00:28;11.90;;;7.20;;
53843;SDS011;39744;53.314;5.710;2023-02-28T17:02:56;12.18;;;7.13;;
53843;SDS011;39744;53.314;5.710;2023-02-28T17:05:22;15.13;;;7.72;;
53843;SDS011;39744;53.314;5.710;2023-02-28T17:07:48;13.65;;;6.82;;
53843;SDS011;39744;53.314;5.710;2023-02-28T17:10:18;14.02;;;7.25;;
53843;SDS011;39744;53.314;5.710;2023-02-28T17:12:48;10.38;;;6.63;;
53843;SDS011;39744;53.314;5.710;2023-02-28T17:15:14;13.07;;;7.28;;
53843;SDS011;39744;53.314;5.710;2023-02-28T17:17:42;12.57;;;7.30;;
53843;SDS011;39744;53.314;5.710;2023-02-28T17:20:27;12.40;;;7.40;;
53843;SDS011;39744;53.314;5.710;2023-02-28T17:22:53;10.65;;;6.78;;
53843;SDS011;39744;53.314;5.710;2023-02-28T17:25:20;12.30;;;7.40;;
53843;SDS011;39744;53.314;5.710;2023-02-28T17:27:46;12.07;;;7.30;;
53843;SDS011;39744;53.314;5.710;2023-02-28T17:32:40;10.68;;;6.88;;